Time;durP1;ratioP1;P1;durP2;ratioP2;P2;SDS_P1;SDS_P2;PMS_P1;PMS_P2;Temp;Humidity;BMP_temperature;BMP_pressure;BME280_temperature;BME280_humidity;BME280_pressure;Samples;Min_cycle;Max_cycle;Signal;HPM_P1;HPM_P2
2022/08/22 00:00:21;;;;;;;4.32;1.77;;;20.30;66.90;;;;;;5033895;28;20065;-36
2022/08/22 00:03:03;;;;;;;2.03;1.15;;;20.30;66.90;;;;;;5033573;28;20033;-36
2022/08/22 00:05:43;;;;;;;3.88;1.65;;;20.30;67.10;;;;;;5033422;28;20033;-36
2022/08/22 00:08:25;;;;;;;2.72;1.20;;;20.30;67.20;;;;;;5033462;28;20057;-36
2022/08/22 00:11:05;;;;;;;5.75;1.48;;;20.30;67.20;;;;;;5033689;28;20389;-36
2022/08/22 00:13:35;;;;;;;3.95;1.38;;;20.20;67.30;;;;;;5033680;28;20025;-35
2022/08/22 00:16:27;;;;;;;3.15;1.70;;;20.20;67.40;;;;;;5034271;28;20025;-37
2022/08/22 00:19:16;;;;;;;5.20;1.40;;;20.20;67.60;;;;;;5033173;28;20029;-37
2022/08/22 00:22:06;;;;;;;4.10;1.40;;;20.20;67.70;;;;;;5033207;28;20029;-36
2022/08/22 00:24:45;;;;;;;4.10;1.20;;;20.20;67.70;;;;;;5032983;28;20017;-35
2022/08/22 00:27:15;;;;;;;3.92;1.50;;;20.20;67.90;;;;;;5033240;28;20048;-37
2022/08/22 00:30:01;;;;;;;4.57;1.70;;;20.20;67.90;;;;;;5033082;28;20108;-36
2022/08/22 00:32:49;;;;;;;2.78;1.30;;;20.20;68.00;;;;;;5033161;28;20021;-36
2022/08/22 00:35:41;;;;;;;4.68;1.63;;;20.10;68.10;;;;;;5033192;28;20370;-36
2022/08/22 00:38:29;;;;;;;4.78;1.65;;;20.10;68.10;;;;;;5026243;28;20079;-36
2022/08/22 00:40:59;;;;;;;5.07;1.50;;;20.10;68.30;;;;;;5032692;28;20113;-36
2022/08/22 00:43:39;;;;;;;3.30;1.50;;;20.00;68.30;;;;;;5032943;28;20033;-37
2022/08/22 00:46:18;;;;;;;4.97;1.63;;;20.10;68.50;;;;;;5033211;28;20036;-36
2022/08/22 00:49:06;;;;;;;4.93;1.70;;;20.00;68.60;;;;;;5032926;28;20033;-36
2022/08/22 00:52:01;;;;;;;3.75;1.58;;;20.00;68.70;;;;;;5032905;28;20527;-35
2022/08/22 00:54:47;;;;;;;4.32;1.38;;;20.00;68.80;;;;;;5033142;28;20113;-36
2022/08/22 00:57:44;;;;;;;3.13;1.40;;;20.00;68.80;;;;;;5022132;28;20037;-36
2022/08/22 01:00:18;;;;;;;6.50;1.77;;;19.90;68.90;;;;;;5021107;28;20041;-36
2022/08/22 01:03:06;;;;;;;4.63;1.63;;;19.90;69.10;;;;;;5032974;28;20037;-36
2022/08/22 01:05:56;;;;;;;3.40;1.40;;;19.90;69.20;;;;;;5032791;28;20030;-35
2022/08/22 01:08:43;;;;;;;5.50;1.50;;;19.90;69.50;;;;;;5033245;28;20623;-36
2022/08/22 01:11:46;;;;;;;4.63;1.58;;;19.90;69.30;;;;;;5032855;28;20108;-36
2022/08/22 01:14:36;;;;;;;4.30;1.77;;;19.90;69.50;;;;;;5032688;28;20022;-36
2022/08/22 01:17:16;;;;;;;4.95;1.50;;;19.90;69.40;;;;;;5032964;28;20098;-36
2022/08/22 01:20:00;;;;;;;4.28;1.65;;;19.90;69.50;;;;;;5032583;28;20033;-36
2022/08/22 01:22:34;;;;;;;4.32;1.55;;;19.90;69.60;;;;;;5032632;28;20080;-36
2022/08/22 01:25:23;;;;;;;4.40;1.55;;;19.90;69.70;;;;;;5032852;28;20025;-36
2022/08/22 01:28:03;;;;;;;5.55;1.60;;;19.90;69.60;;;;;;5004531;28;20030;-35
2022/08/22 01:31:00;;;;;;;3.17;1.20;;;19.90;69.70;;;;;;5032657;28;20160;-35
2022/08/22 01:33:41;;;;;;;5.15;1.80;;;19.90;69.80;;;;;;5032461;28;20033;-34
2022/08/22 01:36:49;;;;;;;4.15;1.50;;;19.90;69.80;;;;;;5032739;28;20029;-36
2022/08/22 01:39:52;;;;;;;5.45;1.70;;;19.90;69.90;;;;;;5031509;28;20096;-36
2022/08/22 01:42:39;;;;;;;4.55;1.70;;;19.80;69.90;;;;;;5032794;28;20025;-36
2022/08/22 01:45:37;;;;;;;6.75;1.77;;;19.90;70.00;;;;;;5032844;28;20025;-45
2022/08/22 01:48:18;;;;;;;3.78;1.55;;;19.80;70.10;;;;;;5032509;28;20022;-41
2022/08/22 01:50:53;;;;;;;5.95;1.73;;;19.80;70.20;;;;;;5032592;28;20072;-38
2022/08/22 01:53:29;;;;;;;3.45;1.20;;;19.80;70.30;;;;;;5035434;28;20416;-36
2022/08/22 01:56:14;;;;;;;6.45;1.73;;;19.80;70.30;;;;;;5036337;28;20107;-36
2022/08/22 01:58:59;;;;;;;3.05;1.38;;;19.80;70.40;;;;;;5036038;28;20096;-36
2022/08/22 02:01:46;;;;;;;4.65;1.60;;;19.80;70.40;;;;;;5036541;28;20489;-35
2022/08/22 02:04:42;;;;;;;3.47;1.38;;;19.80;70.40;;;;;;5035888;28;20034;-37
2022/08/22 02:07:20;;;;;;;3.25;1.48;;;19.90;70.50;;;;;;5035928;28;20048;-36
2022/08/22 02:10:11;;;;;;;4.13;1.67;;;19.80;70.50;;;;;;5035862;28;20060;-41
2022/08/22 02:12:42;;;;;;;3.33;1.67;;;19.80;70.60;;;;;;5035966;28;20018;-35
2022/08/22 02:15:22;;;;;;;5.78;1.63;;;19.80;70.60;;;;;;5035617;28;20034;-36
2022/08/22 02:18:16;;;;;;;4.20;1.55;;;19.80;70.70;;;;;;5035662;28;20025;-36
2022/08/22 02:20:58;;;;;;;3.63;1.55;;;19.80;70.70;;;;;;5035628;28;20488;-35
2022/08/22 02:23:49;;;;;;;3.28;1.40;;;19.80;70.70;;;;;;5035762;28;20424;-35
2022/08/22 02:26:20;;;;;;;5.05;1.77;;;19.80;70.80;;;;;;5035481;28;20121;-33
2022/08/22 02:28:58;;;;;;;5.25;1.70;;;19.80;70.80;;;;;;5035495;28;20481;-36
2022/08/22 02:31:43;;;;;;;5.38;1.67;;;19.80;70.90;;;;;;5035298;28;20026;-35
2022/08/22 02:34:41;;;;;;;5.10;1.50;;;19.80;70.90;;;;;;5035277;28;20021;-35
2022/08/22 02:37:31;;;;;;;4.05;1.50;;;19.80;70.90;;;;;;5033878;28;20025;-35
2022/08/22 02:40:26;;;;;;;4.35;1.55;;;19.80;70.90;;;;;;5035162;28;20100;-36
2022/08/22 02:42:58;;;;;;;3.75;1.55;;;19.80;70.90;;;;;;5035208;28;20400;-36
2022/08/22 02:45:47;;;;;;;5.78;1.67;;;19.80;71.00;;;;;;5035377;28;20126;-35
2022/08/22 02:48:31;;;;;;;3.15;1.45;;;19.80;71.00;;;;;;5035027;28;20025;-35
2022/08/22 02:51:20;;;;;;;4.32;1.55;;;19.70;71.00;;;;;;5035177;28;20021;-36
2022/08/22 02:53:54;;;;;;;4.93;1.60;;;19.70;71.00;;;;;;5035192;28;20049;-35
2022/08/22 02:56:27;;;;;;;4.38;2.25;;;19.80;71.10;;;;;;5034875;28;20021;-35
2022/08/22 02:58:57;;;;;;;5.25;1.70;;;19.80;71.10;;;;;;5034822;28;20022;-35
2022/08/22 03:01:28;;;;;;;3.83;1.70;;;19.80;71.20;;;;;;5035008;28;20147;-36
2022/08/22 03:04:31;;;;;;;5.07;1.52;;;19.70;71.20;;;;;;5034119;28;20102;-36
2022/08/22 03:07:24;;;;;;;4.65;2.45;;;19.80;71.40;;;;;;5034816;28;20056;-36
2022/08/22 03:10:17;;;;;;;2.95;1.40;;;19.70;71.30;;;;;;5034631;28;20021;-36
2022/08/22 03:12:51;;;;;;;3.65;1.63;;;19.70;71.40;;;;;;5034602;28;20018;-35
2022/08/22 03:15:27;;;;;;;2.30;1.45;;;19.70;71.40;;;;;;5035022;28;20040;-36
2022/08/22 03:18:14;;;;;;;3.40;1.58;;;19.70;71.50;;;;;;5034418;28;20043;-35
2022/08/22 03:20:57;;;;;;;6.20;1.60;;;19.70;71.60;;;;;;5034610;28;20499;-35
2022/08/22 03:23:33;;;;;;;6.05;1.63;;;19.70;71.60;;;;;;5034959;28;20508;-36
2022/08/22 03:26:05;;;;;;;4.75;1.80;;;19.60;71.70;;;;;;5034579;28;20033;-36
2022/08/22 03:29:02;;;;;;;4.47;1.80;;;19.60;71.80;;;;;;5034668;28;20440;-35
2022/08/22 03:31:29;;;;;;;3.95;1.70;;;19.60;71.80;;;;;;5034169;28;20766;-36
2022/08/22 03:34:25;;;;;;;4.82;1.45;;;19.60;71.80;;;;;;5034204;28;20053;-37
2022/08/22 03:37:28;;;;;;;4.47;1.70;;;19.60;72.00;;;;;;5021833;28;20037;-35
2022/08/22 03:40:01;;;;;;;4.43;1.90;;;19.60;72.00;;;;;;5033919;28;20036;-36
2022/08/22 03:42:53;;;;;;;4.18;1.75;;;19.60;72.10;;;;;;5034077;28;20110;-35
2022/08/22 03:45:37;;;;;;;3.33;1.58;;;19.60;72.10;;;;;;5033867;28;20029;-36
2022/08/22 03:48:42;;;;;;;5.10;1.60;;;19.50;72.10;;;;;;5033907;28;20021;-35
2022/08/22 03:51:51;;;;;;;5.38;1.67;;;19.50;72.20;;;;;;5033909;28;20096;-35
2022/08/22 03:54:36;;;;;;;4.80;1.65;;;19.50;72.30;;;;;;5004166;28;20041;-35
2022/08/22 03:57:23;;;;;;;4.03;2.10;;;19.50;72.30;;;;;;5034016;28;20034;-43
2022/08/22 04:00:10;;;;;;;3.40;1.65;;;19.50;72.40;;;;;;5033815;28;20029;-35
2022/08/22 04:02:42;;;;;;;3.95;1.63;;;19.40;72.40;;;;;;5033537;28;20389;-34
2022/08/22 04:05:22;;;;;;;4.03;1.63;;;19.50;72.60;;;;;;5033544;28;20061;-36
2022/08/22 04:08:18;;;;;;;5.93;1.83;;;19.40;72.60;;;;;;5033311;28;20053;-36
2022/08/22 04:11:30;;;;;;;4.60;1.65;;;19.40;72.60;;;;;;5033817;28;20028;-35
2022/08/22 04:14:22;;;;;;;4.93;1.50;;;19.50;72.70;;;;;;4972274;28;20030;-35
2022/08/22 04:17:26;;;;;;;6.45;1.75;;;19.50;72.70;;;;;;5030995;28;20026;-35
2022/08/22 04:20:04;;;;;;;4.13;1.50;;;19.40;72.70;;;;;;5033208;28;20436;-35
2022/08/22 04:23:05;;;;;;;4.22;1.70;;;19.50;72.70;;;;;;5031891;28;20029;-35
2022/08/22 04:25:51;;;;;;;3.88;1.80;;;19.40;72.80;;;;;;5033115;28;20033;-36
2022/08/22 04:28:21;;;;;;;5.05;1.98;;;19.40;72.80;;;;;;5033183;28;20028;-35
2022/08/22 04:31:10;;;;;;;4.65;1.83;;;19.40;72.80;;;;;;5033248;28;20474;-36
2022/08/22 04:33:45;;;;;;;4.40;1.85;;;19.50;72.90;;;;;;5033045;28;20029;-35
2022/08/22 04:36:49;;;;;;;5.40;1.85;;;19.40;72.90;;;;;;5033102;28;20037;-35
2022/08/22 04:39:37;;;;;;;3.28;1.77;;;19.50;73.00;;;;;;4972241;28;20023;-36
2022/08/22 04:42:18;;;;;;;6.28;2.03;;;19.50;72.90;;;;;;5030805;28;20040;-36
2022/08/22 04:44:52;;;;;;;5.20;1.95;;;19.50;72.90;;;;;;5033041;28;20366;-36
2022/08/22 04:47:38;;;;;;;4.80;2.00;;;19.50;72.90;;;;;;5032849;28;20026;-35
2022/08/22 04:50:26;;;;;;;6.35;1.88;;;19.50;72.90;;;;;;5031536;28;20048;-36
2022/08/22 04:52:59;;;;;;;5.00;1.85;;;19.50;72.90;;;;;;5023398;28;20037;-35
2022/08/22 04:56:02;;;;;;;4.73;2.23;;;19.60;73.00;;;;;;5033091;28;20060;-35
2022/08/22 04:58:45;;;;;;;4.93;1.90;;;19.60;73.00;;;;;;5033085;28;20033;-35
2022/08/22 05:01:19;;;;;;;;;;;19.60;72.90;;;;;;5033427;28;20392;-35
2022/08/22 05:04:01;;;;;;;5.63;1.70;;;19.60;72.80;;;;;;5032690;28;19905;-35
2022/08/22 05:06:31;;;;;;;4.43;1.92;;;19.50;72.80;;;;;;5032655;28;20076;-36
2022/08/22 05:09:04;;;;;;;3.15;1.73;;;19.50;72.90;;;;;;5032802;28;20022;-35
2022/08/22 05:11:32;;;;;;;3.13;2.10;;;19.50;73.50;;;;;;5032942;28;20152;-35
2022/08/22 05:14:02;;;;;;;6.18;1.90;;;19.50;72.90;;;;;;5032738;28;20026;-35
2022/08/22 05:16:37;;;;;;;5.00;1.98;;;19.50;73.00;;;;;;5032653;28;20084;-35
2022/08/22 05:19:10;;;;;;;4.97;2.33;;;19.50;73.00;;;;;;5033070;28;20021;-36
2022/08/22 05:21:39;;;;;;;4.07;1.90;;;19.50;73.10;;;;;;5032633;28;20014;-36
2022/08/22 05:24:16;;;;;;;4.68;2.05;;;19.50;73.10;;;;;;5032507;28;20022;-35
2022/08/22 05:26:46;;;;;;;6.80;1.95;;;19.50;73.10;;;;;;5034448;28;20025;-35
2022/08/22 05:29:19;;;;;;;3.80;1.58;;;19.50;73.00;;;;;;5036545;28;20079;-36
2022/08/22 05:32:00;;;;;;;3.30;1.50;;;19.60;73.10;;;;;;5036523;28;20029;-35
2022/08/22 05:34:31;;;;;;;4.30;1.85;;;19.50;73.10;;;;;;5037028;28;20022;-36
2022/08/22 05:37:13;;;;;;;5.38;2.13;;;19.50;73.10;;;;;;5036330;28;20021;-36
2022/08/22 05:39:45;;;;;;;6.78;2.22;;;19.50;73.20;;;;;;5036492;28;20117;-37
2022/08/22 05:42:17;;;;;;;4.25;1.75;;;19.50;73.20;;;;;;5036335;28;20087;-35
2022/08/22 05:44:45;;;;;;;4.38;1.98;;;19.50;73.10;;;;;;5036269;28;20173;-37
2022/08/22 05:47:26;;;;;;;3.58;1.83;;;19.50;73.10;;;;;;5036290;28;20025;-36
2022/08/22 05:50:00;;;;;;;5.00;1.85;;;19.50;73.10;;;;;;5036128;28;20556;-36
2022/08/22 05:52:42;;;;;;;5.10;2.05;;;19.60;73.00;;;;;;5036307;28;20071;-36
2022/08/22 05:55:11;;;;;;;3.53;1.90;;;19.60;72.90;;;;;;5036013;28;20026;-36
2022/08/22 05:57:40;;;;;;;4.00;1.80;;;19.70;72.90;;;;;;5036076;28;20104;-35
2022/08/22 06:00:11;;;;;;;7.07;2.15;;;19.70;72.80;;;;;;5035869;28;20029;-38
2022/08/22 06:03:07;;;;;;;4.28;1.85;;;19.70;72.80;;;;;;5034415;28;20462;-35
2022/08/22 06:05:38;;;;;;;5.55;1.80;;;19.80;72.70;;;;;;5036009;28;20057;-34
2022/08/22 06:08:17;;;;;;;4.13;1.90;;;19.80;72.60;;;;;;5034356;28;20477;-37
2022/08/22 06:10:49;;;;;;;4.65;1.90;;;19.80;72.50;;;;;;5035587;28;20029;-35
2022/08/22 06:13:22;;;;;;;5.95;2.05;;;19.90;72.50;;;;;;5035951;28;20018;-36
2022/08/22 06:15:52;;;;;;;;;;;19.90;72.40;;;;;;5036476;28;20056;-36
2022/08/22 06:18:23;;;;;;;3.60;1.65;;;19.90;72.30;;;;;;5035531;28;20265;-36
2022/08/22 06:20:54;;;;;;;4.03;1.85;;;20.00;72.30;;;;;;5035785;28;20022;-36
2022/08/22 06:23:26;;;;;;;4.60;1.50;;;20.00;72.10;;;;;;5035467;28;20029;-36
2022/08/22 06:25:56;;;;;;;3.70;1.70;;;20.00;72.10;;;;;;5035841;28;20028;-36
2022/08/22 06:28:26;;;;;;;4.30;1.90;;;20.00;71.90;;;;;;5035320;28;20080;-36
2022/08/22 06:30:55;;;;;;;5.53;1.73;;;20.10;71.80;;;;;;5035298;28;20022;-37
2022/08/22 06:33:26;;;;;;;5.07;1.70;;;20.20;71.70;;;;;;5033982;28;20481;-39
2022/08/22 06:39:05;;;;;;;3.22;1.55;;;20.30;71.40;;;;;;5034482;28;20033;-36
2022/08/22 06:41:36;;;;;;;3.78;1.67;;;20.40;71.90;;;;;;5035381;28;20075;-37
2022/08/22 06:44:03;;;;;;;6.15;1.85;;;20.40;71.00;;;;;;5035282;28;20028;-37
2022/08/22 06:46:34;;;;;;;3.78;1.70;;;20.50;70.90;;;;;;5035375;28;20071;-37
2022/08/22 06:49:01;;;;;;;4.63;1.70;;;20.50;70.70;;;;;;5034875;28;20127;-41
2022/08/22 06:51:28;;;;;;;4.18;1.88;;;20.60;70.60;;;;;;5034840;28;20028;-37
2022/08/22 06:53:59;;;;;;;3.35;1.48;;;20.60;70.40;;;;;;5035041;28;20018;-37
2022/08/22 06:56:31;;;;;;;3.83;1.60;;;20.70;70.20;;;;;;5034872;28;20079;-37
2022/08/22 06:59:01;;;;;;;4.95;1.50;;;20.70;70.10;;;;;;5035170;28;20025;-37
2022/08/22 07:01:33;;;;;;;4.25;1.77;;;20.80;70.60;;;;;;5034920;28;20030;-36
2022/08/22 07:04:09;;;;;;;4.15;1.60;;;20.80;69.90;;;;;;5034983;28;20334;-37
2022/08/22 07:06:40;;;;;;;5.15;1.90;;;20.90;69.80;;;;;;5034539;28;20419;-36
2022/08/22 07:09:15;;;;;;;2.28;1.73;;;20.80;69.70;;;;;;5034678;28;20025;-36
2022/08/22 07:11:41;;;;;;;4.80;2.05;;;20.90;69.60;;;;;;5034866;28;20079;-36
2022/08/22 07:14:13;;;;;;;4.47;1.55;;;20.90;69.50;;;;;;5034307;28;20022;-36
2022/08/22 07:17:15;;;;;;;3.22;1.58;;;20.90;69.40;;;;;;5034255;28;20029;-36
2022/08/22 07:19:52;;;;;;;4.85;1.65;;;21.00;69.30;;;;;;5023985;28;20037;-36
2022/08/22 07:22:25;;;;;;;5.68;1.85;;;21.00;69.10;;;;;;5034377;28;20025;-37
2022/08/22 07:25:13;;;;;;;7.00;1.90;;;21.10;69.00;;;;;;5034096;28;20025;-36
2022/08/22 07:27:57;;;;;;;4.75;1.80;;;21.10;68.90;;;;;;5034645;28;20117;-36
2022/08/22 07:30:25;;;;;;;4.00;1.60;;;21.10;68.80;;;;;;5034189;28;20021;-37
2022/08/22 07:33:10;;;;;;;3.75;1.65;;;21.00;68.80;;;;;;5034006;28;20032;-37
2022/08/22 07:35:41;;;;;;;4.32;1.65;;;21.00;68.70;;;;;;5034015;28;20025;-36
2022/08/22 07:38:20;;;;;;;3.90;2.00;;;21.10;68.70;;;;;;5034478;28;20033;-37
2022/08/22 07:40:45;;;;;;;4.82;1.90;;;21.10;68.50;;;;;;5034025;28;20034;-45
2022/08/22 07:43:31;;;;;;;2.22;1.60;;;21.10;68.40;;;;;;5033938;28;20029;-37
2022/08/22 07:46:36;;;;;;;4.15;1.83;;;21.10;68.30;;;;;;5033745;28;20075;-37
2022/08/22 07:49:15;;;;;;;5.15;1.73;;;21.10;68.40;;;;;;5029727;28;20132;-36
2022/08/22 07:51:51;;;;;;;3.60;1.48;;;21.10;68.30;;;;;;5033803;28;20021;-36
2022/08/22 07:54:23;;;;;;;4.57;1.83;;;21.10;68.30;;;;;;5033854;28;20029;-36
2022/08/22 07:57:05;;;;;;;2.80;1.50;;;21.10;68.30;;;;;;5033628;28;20022;-37
2022/08/22 07:59:35;;;;;;;4.93;1.90;;;21.20;68.30;;;;;;5032474;28;20029;-36
2022/08/22 08:02:06;;;;;;;3.13;1.70;;;21.20;68.30;;;;;;5033999;28;20044;-36
2022/08/22 08:04:34;;;;;;;5.45;1.90;;;21.20;68.20;;;;;;5033507;28;20028;-35
2022/08/22 08:07:01;;;;;;;4.88;2.20;;;21.20;68.10;;;;;;5033439;28;20111;-36
2022/08/22 08:09:34;;;;;;;6.18;2.22;;;21.20;68.10;;;;;;5033500;28;20018;-36
2022/08/22 08:12:03;;;;;;;4.82;1.83;;;21.20;68.00;;;;;;5033687;28;20113;-37
2022/08/22 08:14:29;;;;;;;3.28;1.67;;;21.10;68.10;;;;;;5033810;28;20026;-36
2022/08/22 08:16:59;;;;;;;4.70;2.03;;;21.20;68.10;;;;;;5033340;28;20386;-36
2022/08/22 08:19:26;;;;;;;4.15;1.88;;;21.20;68.00;;;;;;5033371;28;20428;-37
2022/08/22 08:21:54;;;;;;;4.57;1.80;;;21.20;68.10;;;;;;5033262;28;20031;-36
2022/08/22 08:24:26;;;;;;;2.72;1.50;;;21.10;68.00;;;;;;5033415;28;20366;-36
2022/08/22 08:29:53;;;;;;;3.97;1.80;;;21.30;67.90;;;;;;5033677;28;20036;-36
2022/08/22 08:32:21;;;;;;;4.70;1.77;;;21.40;67.70;;;;;;5033629;28;20107;-37
2022/08/22 08:34:47;;;;;;;3.10;1.60;;;21.50;67.60;;;;;;5033487;28;20071;-36
2022/08/22 08:37:34;;;;;;;4.15;1.60;;;21.70;67.40;;;;;;5033182;28;20477;-37
2022/08/22 08:40:06;;;;;;;4.07;1.80;;;21.80;67.20;;;;;;5032994;28;20025;-36
2022/08/22 08:46:15;;;;;;;5.60;1.42;;;22.00;66.70;;;;;;5032849;28;20087;-41
2022/08/22 08:48:59;;;;;;;5.63;1.70;;;22.10;66.60;;;;;;5032879;28;20029;-37
2022/08/22 08:52:15;;;;;;;3.20;1.75;;;22.20;66.50;;;;;;5033090;28;20080;-36
2022/08/22 08:54:56;;;;;;;11.05;2.40;;;22.20;66.40;;;;;;4972353;28;20057;-36
2022/08/22 08:57:36;;;;;;;10.13;2.50;;;22.20;66.40;;;;;;4972317;28;20383;-35
2022/08/22 09:00:13;;;;;;;4.80;2.10;;;22.20;66.40;;;;;;5017459;28;20038;-37
2022/08/22 09:03:15;;;;;;;5.68;2.05;;;22.20;66.40;;;;;;5039680;28;20017;-36
2022/08/22 09:06:08;;;;;;;5.22;1.70;;;22.20;66.40;;;;;;5011269;28;20081;-36
2022/08/22 09:08:58;;;;;;;20.85;3.38;;;22.10;66.50;;;;;;5039863;28;20056;-41
2022/08/22 09:11:57;;;;;;;7.13;2.60;;;22.10;67.20;;;;;;5039498;28;20549;-40
2022/08/22 09:14:49;;;;;;;7.80;2.40;;;22.10;66.40;;;;;;5039041;28;20021;-36
2022/08/22 09:17:39;;;;;;;2.97;1.77;;;22.10;66.40;;;;;;5008470;28;20041;-36
2022/08/22 09:20:11;;;;;;;6.32;1.77;;;22.20;67.00;;;;;;5039291;28;20449;-36
2022/08/22 09:23:15;;;;;;;6.63;1.73;;;22.30;66.20;;;;;;5039231;28;20501;-36
2022/08/22 09:25:50;;;;;;;;;;;22.40;66.00;;;;;;5039697;28;20033;-36
2022/08/22 09:28:39;;;;;;;3.75;1.77;;;22.50;65.80;;;;;;5039361;28;19912;-36
2022/08/22 09:31:13;;;;;;;6.45;1.98;;;22.60;65.60;;;;;;5039240;28;20021;-37
2022/08/22 09:34:00;;;;;;;3.95;1.75;;;22.70;65.60;;;;;;5039338;28;20025;-35
2022/08/22 09:36:50;;;;;;;7.25;1.95;;;22.90;66.00;;;;;;5039348;28;20497;-36
2022/08/22 09:39:23;;;;;;;45.13;6.65;;;23.00;65.00;;;;;;5028429;28;20041;-36
2022/08/22 09:42:00;;;;;;;;;;;23.20;64.70;;;;;;5039546;28;20080;-35
2022/08/22 09:44:31;;;;;;;4.47;2.10;;;23.30;64.50;;;;;;5039573;28;19916;-34
2022/08/22 09:47:33;;;;;;;5.93;2.08;;;23.50;64.20;;;;;;5037825;28;20013;-36
2022/08/22 09:49:58;;;;;;;7.57;1.80;;;23.60;63.80;;;;;;5039096;28;20037;-39
2022/08/22 09:52:32;;;;;;;3.70;1.40;;;23.60;63.50;;;;;;5038860;28;20069;-35
2022/08/22 09:55:08;;;;;;;6.72;1.80;;;23.70;62.80;;;;;;5038878;28;20070;-36
2022/08/22 09:57:50;;;;;;;3.67;1.50;;;23.80;62.90;;;;;;5037590;28;20021;-35
2022/08/22 10:00:43;;;;;;;6.72;1.48;;;23.90;61.80;;;;;;5038978;28;20485;-36
2022/08/22 10:03:48;;;;;;;4.90;1.55;;;24.00;61.70;;;;;;5039769;28;20057;-35
2022/08/22 10:06:30;;;;;;;6.72;1.45;;;24.00;60.90;;;;;;5038529;28;20040;-36
2022/08/22 10:09:09;;;;;;;4.45;1.60;;;24.10;60.70;;;;;;5038826;28;20037;-35
2022/08/22 10:11:44;;;;;;;2.85;1.60;;;24.10;60.50;;;;;;5038853;28;20037;-35
2022/08/22 10:14:19;;;;;;;4.38;1.70;;;24.20;60.10;;;;;;5034689;28;20400;-26
2022/08/22 10:16:59;;;;;;;1.95;1.10;;;24.20;59.70;;;;;;5035704;28;20417;-25
2022/08/22 10:19:34;;;;;;;5.93;1.75;;;24.30;59.50;;;;;;5035909;28;20029;-27
2022/08/22 10:22:06;;;;;;;2.40;1.10;;;24.30;59.30;;;;;;5035754;28;20125;-26
2022/08/22 10:24:31;;;;;;;4.43;1.48;;;24.30;59.10;;;;;;5035560;28;20077;-26
2022/08/22 10:27:04;;;;;;;2.65;1.40;;;24.30;59.00;;;;;;5035440;28;20040;-28
2022/08/22 10:29:53;;;;;;;6.07;1.65;;;24.40;58.70;;;;;;5035522;28;20033;-27
2022/08/22 10:32:43;;;;;;;1.83;1.20;;;24.40;58.60;;;;;;5035605;28;20032;-29
2022/08/22 10:35:19;;;;;;;1.88;1.23;;;24.40;58.50;;;;;;5035667;28;20036;-29
2022/08/22 10:38:10;;;;;;;2.33;1.35;;;24.50;58.40;;;;;;5035624;28;20044;-28
2022/08/22 10:40:42;;;;;;;2.80;1.23;;;24.50;58.10;;;;;;5035408;28;20051;-28
2022/08/22 10:43:18;;;;;;;3.87;1.60;;;24.60;58.10;;;;;;5035710;28;20029;-29
2022/08/22 10:45:49;;;;;;;5.28;2.50;;;24.60;57.90;;;;;;5035212;28;20033;-28
2022/08/22 10:48:22;;;;;;;4.30;1.45;;;24.50;57.50;;;;;;5035476;28;20083;-28
2022/08/22 10:51:03;;;;;;;2.28;1.23;;;24.50;57.20;;;;;;5035230;28;20492;-27
2022/08/22 10:53:41;;;;;;;4.82;1.75;;;24.50;57.20;;;;;;5035724;28;20034;-29
2022/08/22 10:56:16;;;;;;;4.55;1.85;;;24.50;57.00;;;;;;5035292;28;20064;-28
2022/08/22 10:58:53;;;;;;;3.47;1.70;;;24.50;56.80;;;;;;5035389;28;20452;-29
2022/08/22 11:01:21;;;;;;;2.25;1.33;;;24.50;56.80;;;;;;5035078;28;20366;-30
2022/08/22 11:04:24;;;;;;;10.10;2.00;;;24.50;56.80;;;;;;5017193;28;20022;-28
2022/08/22 11:07:15;;;;;;;7.63;1.80;;;24.50;56.60;;;;;;5001460;28;20476;-28
2022/08/22 11:09:52;;;;;;;5.13;1.83;;;24.50;56.40;;;;;;5035159;28;20488;-30
2022/08/22 11:12:36;;;;;;;3.65;1.80;;;24.50;56.10;;;;;;5035219;28;20029;-28
2022/08/22 11:15:17;;;;;;;2.55;1.30;;;24.50;56.00;;;;;;5034768;28;20018;-42
2022/08/22 11:18:15;;;;;;;4.13;1.63;;;24.50;56.00;;;;;;5034692;28;20029;-38
2022/08/22 11:20:46;;;;;;;2.08;1.40;;;24.50;55.80;;;;;;5014365;28;20492;-43
2022/08/22 11:23:39;;;;;;;4.13;1.40;;;24.60;55.70;;;;;;5034540;28;20091;-38
2022/08/22 11:26:18;;;;;;;4.30;1.40;;;24.70;55.50;;;;;;5034736;28;20048;-39
2022/08/22 11:29:11;;;;;;;3.92;1.55;;;24.80;55.40;;;;;;5034303;28;20056;-41
2022/08/22 11:31:40;;;;;;;2.67;1.52;;;25.00;54.80;;;;;;5006987;28;20116;-42
2022/08/22 11:34:35;;;;;;;2.97;1.45;;;25.10;54.30;;;;;;5034611;28;20478;-40
2022/08/22 11:37:44;;;;;;;4.85;1.88;;;25.10;54.20;;;;;;5034350;28;20033;-42
2022/08/22 11:40:49;;;;;;;2.92;1.70;;;25.20;53.90;;;;;;5034323;28;20021;-38
2022/08/22 11:43:58;;;;;;;3.53;1.48;;;25.50;53.70;;;;;;5034317;28;20068;-42
2022/08/22 11:46:28;;;;;;;2.78;1.45;;;25.70;54.00;;;;;;5034386;28;20037;-42
2022/08/22 11:49:05;;;;;;;3.38;1.45;;;25.90;53.20;;;;;;5034257;28;20064;-41
2022/08/22 11:52:08;;;;;;;2.60;1.23;;;26.00;52.70;;;;;;5034006;28;20080;-36
2022/08/22 11:54:53;;;;;;;2.15;1.38;;;26.10;52.60;;;;;;5034410;28;20044;-35
2022/08/22 11:57:43;;;;;;;2.10;1.30;;;26.20;52.60;;;;;;5033961;28;20350;-36
2022/08/22 12:00:34;;;;;;;5.75;1.40;;;26.30;52.10;;;;;;5034034;28;20032;-36
2022/08/22 12:03:18;;;;;;;4.90;1.38;;;26.40;52.00;;;;;;5034068;28;20045;-36
2022/08/22 12:05:53;;;;;;;1.90;1.23;;;26.40;51.80;;;;;;5033522;28;20039;-35
2022/08/22 12:08:28;;;;;;;2.28;1.40;;;26.40;51.70;;;;;;5033357;28;20060;-36
2022/08/22 12:11:05;;;;;;;2.53;1.20;;;26.40;51.70;;;;;;5033518;28;20033;-36
2022/08/22 12:14:04;;;;;;;4.25;1.45;;;26.50;51.70;;;;;;5034108;28;20066;-39
2022/08/22 12:17:04;;;;;;;3.03;1.45;;;26.60;51.40;;;;;;5033691;28;20562;-37
2022/08/22 12:19:55;;;;;;;2.35;1.38;;;26.60;51.20;;;;;;5033824;28;20515;-37
2022/08/22 12:22:50;;;;;;;6.07;1.65;;;26.70;51.20;;;;;;5005439;28;20045;-37
2022/08/22 12:25:39;;;;;;;3.22;1.45;;;26.70;50.70;;;;;;5033553;28;20030;-37
2022/08/22 12:28:34;;;;;;;3.85;1.73;;;26.70;50.40;;;;;;5032337;28;20481;-37
2022/08/22 12:31:15;;;;;;;3.92;1.35;;;26.80;50.60;;;;;;5033553;28;20088;-37
2022/08/22 12:34:03;;;;;;;2.58;1.85;;;26.80;50.30;;;;;;5033389;28;20033;-37
2022/08/22 12:36:52;;;;;;;3.00;1.33;;;26.90;50.10;;;;;;5032609;28;20042;-37
2022/08/22 12:40:00;;;;;;;3.10;1.17;;;26.90;49.90;;;;;;5033304;28;20041;-36
2022/08/22 12:43:03;;;;;;;2.10;1.30;;;27.00;50.10;;;;;;5025164;28;20061;-37
2022/08/22 12:46:00;;;;;;;1.85;1.30;;;27.10;50.10;;;;;;5033270;28;20068;-37
2022/08/22 12:48:51;;;;;;;3.17;1.13;;;27.30;50.10;;;;;;5033496;28;20037;-39
2022/08/22 12:51:38;;;;;;;2.90;1.33;;;27.30;49.80;;;;;;5033041;28;20037;-36
2022/08/22 12:54:41;;;;;;;4.00;1.38;;;27.40;49.60;;;;;;5033268;28;20049;-35
2022/08/22 12:57:30;;;;;;;2.97;1.30;;;27.50;49.20;;;;;;5032721;28;20524;-37
2022/08/22 13:00:18;;;;;;;3.75;1.48;;;27.60;49.20;;;;;;5033147;28;20064;-37
2022/08/22 13:02:44;;;;;;;3.40;1.42;;;27.70;49.10;;;;;;5032957;28;20034;-37
2022/08/22 13:05:19;;;;;;;2.05;1.30;;;27.70;48.90;;;;;;5031847;28;20048;-37
2022/08/22 13:07:53;;;;;;;3.45;1.42;;;27.80;48.40;;;;;;5032534;28;20045;-36
2022/08/22 13:10:33;;;;;;;2.85;1.40;;;27.80;48.20;;;;;;5033232;28;20108;-38
2022/08/22 13:13:00;;;;;;;3.33;1.58;;;27.80;47.90;;;;;;5033159;28;20046;-37
2022/08/22 13:15:35;;;;;;;3.13;1.27;;;27.80;47.90;;;;;;5032879;28;20091;-36
2022/08/22 13:18:05;;;;;;;2.97;1.50;;;27.80;47.90;;;;;;5032848;28;20436;-37
2022/08/22 13:20:36;;;;;;;3.22;1.40;;;27.80;48.10;;;;;;5032904;28;20060;-38
2022/08/22 13:23:13;;;;;;;3.58;1.40;;;27.80;48.10;;;;;;5032897;28;20080;-38
2022/08/22 13:25:58;;;;;;;4.15;1.33;;;27.80;47.80;;;;;;5032572;28;20025;-36
2022/08/22 13:28:27;;;;;;;3.50;1.40;;;27.70;47.70;;;;;;5033092;28;20546;-37
2022/08/22 13:30:54;;;;;;;3.92;1.40;;;27.70;47.70;;;;;;5032829;28;20424;-36
2022/08/22 13:33:31;;;;;;;2.47;1.40;;;27.70;47.50;;;;;;5032754;28;20061;-37
2022/08/22 13:36:03;;;;;;;3.67;1.50;;;27.70;47.10;;;;;;5032670;28;20037;-36
2022/08/22 13:38:40;;;;;;;2.75;1.30;;;27.70;47.20;;;;;;5032863;28;20029;-36
2022/08/22 13:41:07;;;;;;;2.75;1.40;;;27.70;47.20;;;;;;5032629;28;20048;-36
2022/08/22 13:43:55;;;;;;;2.08;1.23;;;27.80;47.00;;;;;;5032826;28;20033;-36
2022/08/22 13:46:25;;;;;;;2.38;1.17;;;27.80;47.10;;;;;;5032865;28;20124;-35
2022/08/22 13:48:54;;;;;;;3.00;1.52;;;27.80;47.00;;;;;;5036769;28;20511;-35
2022/08/22 13:51:32;;;;;;;1.92;1.17;;;27.80;46.60;;;;;;5036295;28;20030;-36
2022/08/22 13:54:22;;;;;;;2.72;1.27;;;27.80;46.40;;;;;;5034441;28;20038;-36
2022/08/22 13:57:05;;;;;;;2.38;1.20;;;27.80;46.50;;;;;;5036158;28;20040;-35
2022/08/22 13:59:38;;;;;;;2.63;1.30;;;27.80;46.30;;;;;;5036011;28;20053;-37
2022/08/22 14:02:21;;;;;;;2.35;1.10;;;27.90;46.30;;;;;;5036074;28;20040;-42
2022/08/22 14:04:50;;;;;;;3.95;1.40;;;27.90;46.30;;;;;;5035745;28;20104;-36
2022/08/22 14:07:32;;;;;;;4.13;1.63;;;27.90;46.00;;;;;;5035667;28;20049;-36
2022/08/22 14:10:03;;;;;;;2.03;1.23;;;27.90;45.70;;;;;;5035841;28;20029;-37